Time;durP1;ratioP1;P1;durP2;ratioP2;P2;SDS_P1;SDS_P2;PMS_P1;PMS_P2;Temp;Humidity;BMP_temperature;BMP_pressure;BME280_temperature;BME280_humidity;BME280_pressure;Samples;Min_cycle;Max_cycle;Signal;HPM_P1;HPM_P2
2023/01/12 00:02:06;;;;;;;43.80;5.68;;;;;;;8.80;99.50;99675.41;5018002;28;20041;-66
2023/01/12 00:04:32;;;;;;;41.63;5.22;;;;;;;8.91;99.88;99666.69;5016673;28;20129;-66
2023/01/12 00:07:00;;;;;;;49.13;5.78;;;;;;;8.97;99.14;99665.78;5016464;28;20026;-66
2023/01/12 00:09:26;;;;;;;45.08;5.80;;;;;;;8.89;99.62;99658.03;5018139;28;20428;-66
2023/01/12 00:11:51;;;;;;;50.92;6.72;;;;;;;9.02;98.66;99657.13;5017028;28;20100;-66
2023/01/12 00:14:17;;;;;;;39.28;4.68;;;;;;;9.05;98.32;99644.09;5000368;28;20168;-66
2023/01/12 00:16:43;;;;;;;47.83;6.25;;;;;;;9.05;98.84;99643.25;5016204;28;20030;-66
2023/01/12 00:19:16;;;;;;;43.45;5.43;;;;;;;9.04;98.49;99642.44;5026210;28;20053;-66
2023/01/12 00:24:33;;;;;;;49.13;6.50;;;;;;;9.11;98.32;99651.28;5037322;28;20056;-66
2023/01/12 00:27:01;;;;;;;51.03;7.30;;;;;;;8.99;98.73;99641.44;5019701;28;20113;-66
2023/01/12 00:29:27;;;;;;;41.38;5.78;;;;;;;9.10;98.30;99638.06;5019621;28;20041;-66
2023/01/12 00:31:54;;;;;;;51.10;5.50;;;;;;;9.01;99.50;99634.84;5019272;28;20116;-66
2023/01/12 00:34:19;;;;;;;43.88;6.25;;;;;;;9.01;98.98;99628.66;5019067;28;20113;-66
2023/01/12 00:36:45;;;;;;;48.80;6.20;;;;;;;9.09;98.79;99639.91;5017869;28;20061;-66
2023/01/12 00:39:12;;;;;;;49.85;6.22;;;;;;;9.20;98.62;99635.69;5016364;28;20029;-66
2023/01/12 00:47:06;;;;;;;43.92;5.43;;;;;;;9.13;97.67;99605.41;5037467;28;20397;-66
2023/01/12 00:49:33;;;;;;;39.40;5.03;;;;;;;9.18;97.87;99619.00;5002403;28;20037;-66
2023/01/12 00:51:58;;;;;;;47.13;6.45;;;;;;;9.14;98.07;99625.88;5037084;28;20033;-66
2023/01/12 00:54:24;;;;;;;57.80;6.32;;;;;;;8.98;98.79;99602.25;5018981;28;20029;-66
2023/01/12 00:56:50;;;;;;;54.00;6.90;;;;;;;9.12;98.38;99614.50;5035894;28;20036;-66
2023/01/12 00:59:15;;;;;;;57.88;6.65;;;;;;;9.07;98.85;99600.91;5019200;28;20030;-66
2023/01/12 01:01:41;;;;;;;61.58;8.25;;;;;;;9.03;99.69;99602.41;5002734;28;20025;-66
2023/01/12 01:04:06;;;;;;;67.90;6.85;;;;;;;8.97;99.94;99604.09;5019498;28;20496;-66
2023/01/12 01:06:31;;;;;;;68.60;7.93;;;;;;;9.00;99.56;99603.66;5036908;28;20021;-66
2023/01/12 01:08:57;;;;;;;56.80;6.78;;;;;;;8.97;100.00;99604.09;5002566;28;20029;-66
2023/01/12 01:11:23;;;;;;;64.72;7.60;;;;;;;9.02;99.94;99601.59;5036896;28;20368;-66
2023/01/12 01:13:48;;;;;;;61.05;6.32;;;;;;;8.99;100.00;99593.97;5037183;28;20021;-66
2023/01/12 01:16:16;;;;;;;58.83;7.40;;;;;;;8.98;99.82;99570.06;5036726;28;20032;-66
2023/01/12 01:18:42;;;;;;;65.28;7.00;;;;;;;8.93;100.00;99563.47;5036879;28;20045;-66
2023/01/12 01:21:10;;;;;;;57.88;6.32;;;;;;;9.07;100.00;99582.97;5019256;28;20038;-66
2023/01/12 01:23:37;;;;;;;68.75;7.68;;;;;;;8.99;100.00;99577.88;5036553;28;20404;-66
2023/01/12 01:26:09;;;;;;;55.17;6.70;;;;;;;9.00;100.00;99581.38;5018497;28;20040;-66
2023/01/12 01:28:38;;;;;;;55.13;6.03;;;;;;;9.09;100.00;99577.38;5036514;28;20033;-66
2023/01/12 01:31:13;;;;;;;62.83;7.05;;;;;;;9.02;100.00;99568.56;5018580;28;20120;-66
2023/01/12 01:33:39;;;;;;;66.25;5.95;;;;;;;9.05;100.00;99571.63;5035357;28;20104;-66
2023/01/12 01:36:05;;;;;;;59.35;7.22;;;;;;;9.10;100.00;99562.91;5035835;28;20021;-66
2023/01/12 01:38:31;;;;;;;63.97;6.95;;;;;;;9.02;100.00;99557.84;5036441;28;20036;-66
2023/01/12 01:40:57;;;;;;;54.20;6.53;;;;;;;8.92;100.00;99537.69;5018550;28;20029;-66
2023/01/12 01:43:25;;;;;;;52.25;6.43;;;;;;;9.05;100.00;99543.97;5036642;28;20036;-66
2023/01/12 01:45:59;;;;;;;65.25;7.32;;;;;;;9.00;100.00;99554.53;5039874;28;20029;-66
2023/01/12 01:48:27;;;;;;;58.45;6.55;;;;;;;8.92;100.00;99540.38;5036718;28;20021;-66
2023/01/12 01:50:57;;;;;;;64.93;6.60;;;;;;;9.10;100.00;99554.88;5039646;28;20085;-66
2023/01/12 01:53:25;;;;;;;58.60;6.50;;;;;;;8.96;100.00;99513.91;5039293;28;20021;-66
2023/01/12 01:55:56;;;;;;;45.67;5.85;;;;;;;8.99;100.00;99539.50;5021438;28;20037;-66
2023/01/12 01:58:30;;;;;;;55.60;6.88;;;;;;;8.89;100.00;99538.13;5039561;28;20198;-66
2023/01/12 02:00:57;;;;;;;63.55;7.30;;;;;;;8.75;100.00;99500.91;5039330;28;20360;-66
2023/01/12 02:03:24;;;;;;;61.72;6.55;;;;;;;9.01;100.00;99540.91;5039254;28;20056;-66
2023/01/12 02:05:51;;;;;;;58.42;7.25;;;;;;;8.99;100.00;99539.50;5039771;28;20025;-66
2023/01/12 02:08:27;;;;;;;69.43;7.57;;;;;;;9.03;100.00;99532.63;5022683;28;20021;-66
2023/01/12 02:10:55;;;;;;;57.25;6.70;;;;;;;8.95;100.00;99520.34;5043893;28;20021;-66
2023/01/12 02:16:19;;;;;;;55.08;6.30;;;;;;;8.91;100.00;99522.63;5024260;28;20040;-66
2023/01/12 02:18:56;;;;;;;49.90;6.43;;;;;;;8.98;100.00;99516.41;5045323;28;20050;-66
2023/01/12 02:21:44;;;;;;;48.60;5.68;;;;;;;8.91;100.00;99519.13;5036958;28;20502;-66
2023/01/12 02:24:39;;;;;;;46.30;6.15;;;;;;;8.91;100.00;99509.22;5022189;28;20040;-66
2023/01/12 02:27:47;;;;;;;52.38;5.63;;;;;;;8.88;100.00;99506.97;5004460;28;20357;-66
2023/01/12 02:30:28;;;;;;;52.70;6.15;;;;;;;8.87;100.00;99496.44;5020157;28;20034;-66
2023/01/12 02:32:59;;;;;;;49.95;5.50;;;;;;;8.93;100.00;99499.06;5039473;28;20071;-66
2023/01/12 02:35:42;;;;;;;45.45;5.40;;;;;;;8.85;100.00;99475.22;5038766;28;20403;-66
2023/01/12 02:38:30;;;;;;;42.03;5.50;;;;;;;8.85;100.00;99469.88;5039104;28;20387;-66
2023/01/12 02:42:39;;;;;;;48.05;5.55;;;;;;;8.88;100.00;99484.69;5039783;28;20034;-66
2023/01/12 02:44:22;;;;;;;53.17;6.68;;;;;;;8.90;100.00;99486.09;5039222;28;20068;-66
2023/01/12 02:46:50;;;;;;;44.83;5.10;;;;;;;8.89;100.00;99489.84;5020991;28;20037;-66
2023/01/12 02:49:20;;;;;;;40.30;5.10;;;;;;;8.74;100.00;99477.78;5038574;28;20083;-66
2023/01/12 02:51:53;;;;;;;48.35;5.95;;;;;;;8.81;100.00;99484.75;5020785;28;20036;-66
2023/01/12 02:54:21;;;;;;;39.85;4.55;;;;;;;8.67;100.00;99461.75;5037438;28;20024;-66
2023/01/12 02:56:51;;;;;;;37.63;4.28;;;;;;;8.73;100.00;99465.44;5019546;28;20101;-66
2023/01/12 02:59:21;;;;;;;32.55;3.92;;;;;;;8.79;100.00;99468.06;5036579;28;20492;-66
2023/01/12 03:01:50;;;;;;;34.08;4.03;;;;;;;8.60;100.00;99477.09;5036141;28;20056;-66
2023/01/12 03:04:17;;;;;;;27.17;3.80;;;;;;;8.70;100.00;99472.06;5020415;28;20562;-66
2023/01/12 03:07:01;;;;;;;23.73;3.17;;;;;;;8.66;100.00;99462.81;5004826;28;20036;-66
2023/01/12 03:09:34;;;;;;;23.13;3.00;;;;;;;8.63;100.00;99471.28;5038736;28;20052;-66
2023/01/12 03:12:05;;;;;;;11.10;1.83;;;;;;;8.20;100.00;99455.91;5020743;28;20033;-66
2023/01/12 03:14:34;;;;;;;12.88;1.80;;;;;;;8.25;100.00;99464.13;5020376;28;20089;-66
2023/01/12 03:17:04;;;;;;;10.68;1.08;;;;;;;8.09;100.00;99452.06;5020339;28;20091;-67
2023/01/12 03:19:32;;;;;;;8.82;1.20;;;;;;;8.15;100.00;99474.50;5020426;28;20115;-66
2023/01/12 03:22:06;;;;;;;10.35;1.20;;;;;;;8.04;100.00;99459.09;5020380;28;20041;-66
2023/01/12 03:24:36;;;;;;;10.48;1.20;;;;;;;8.17;100.00;99477.78;5038521;28;20372;-66
2023/01/12 03:27:09;;;;;;;13.88;1.40;;;;;;;8.19;99.86;99465.00;5038157;28;20025;-66
2023/01/12 03:29:45;;;;;;;8.68;1.60;;;;;;;8.21;99.30;99468.25;5038515;28;20033;-66
2023/01/12 03:32:10;;;;;;;11.75;1.55;;;;;;;8.05;99.81;99458.09;5038877;28;20340;-66
2023/01/12 03:34:36;;;;;;;16.05;1.35;;;;;;;8.08;99.54;99452.28;5020514;28;20095;-66
2023/01/12 03:37:10;;;;;;;13.00;2.35;;;;;;;8.04;99.55;99441.16;5038118;28;20041;-66
2023/01/12 03:39:48;;;;;;;17.10;1.52;;;;;;;8.02;99.84;99434.41;5038142;28;20028;-66
2023/01/12 03:42:28;;;;;;;15.75;1.98;;;;;;;8.06;99.19;99417.69;5037027;28;20035;-66
2023/01/12 03:45:12;;;;;;;19.45;1.40;;;;;;;8.03;99.04;99418.09;5020262;28;20025;-66
2023/01/12 03:47:40;;;;;;;8.20;1.30;;;;;;;7.97;99.96;99398.34;5038125;28;20036;-66
2023/01/12 03:50:17;;;;;;;13.93;1.90;;;;;;;7.97;99.67;99386.81;5019669;28;20033;-66
2023/01/12 03:52:44;;;;;;;11.85;1.90;;;;;;;8.05;99.73;99389.25;5038002;28;20104;-66
2023/01/12 03:55:14;;;;;;;7.05;1.08;;;;;;;7.97;99.73;99384.97;5020322;28;20191;-66
2023/01/12 03:57:42;;;;;;;10.88;1.40;;;;;;;8.10;99.64;99394.75;5020299;28;20686;-66
2023/01/12 04:00:10;;;;;;;7.45;1.25;;;;;;;7.86;99.73;99353.53;5038065;28;20029;-66
2023/01/12 04:02:35;;;;;;;8.40;1.30;;;;;;;8.10;99.47;99369.84;5037679;28;20029;-66
2023/01/12 04:05:01;;;;;;;12.30;1.63;;;;;;;8.05;99.86;99367.00;5017901;28;20120;-67
2023/01/12 04:07:26;;;;;;;13.00;1.83;;;;;;;8.13;99.82;99366.72;5035892;28;20045;-66
2023/01/12 04:09:51;;;;;;;11.27;1.98;;;;;;;8.15;99.92;99372.69;5019680;28;20029;-66
2023/01/12 04:12:17;;;;;;;15.70;2.15;;;;;;;8.21;99.83;99367.28;5037633;28;20033;-66
2023/01/12 04:14:44;;;;;;;18.80;2.67;;;;;;;8.18;99.71;99350.81;5019177;28;20033;-66
2023/01/12 04:17:12;;;;;;;22.23;3.17;;;;;;;8.34;99.67;99357.47;4986771;28;20025;-66
2023/01/12 04:19:38;;;;;;;25.60;3.10;;;;;;;8.41;100.00;99358.25;5036690;28;20045;-66
2023/01/12 04:24:50;;;;;;;18.80;3.10;;;;;;;8.54;100.00;99362.69;5037020;28;20083;-66
2023/01/12 04:27:16;;;;;;;17.08;2.90;;;;;;;8.55;100.00;99361.66;5019588;28;20017;-66
2023/01/12 04:29:41;;;;;;;31.65;3.33;;;;;;;8.53;100.00;99359.19;5037113;28;20041;-66
2023/01/12 04:32:07;;;;;;;28.55;3.42;;;;;;;8.62;100.00;99360.53;5020015;28;20056;-67
2023/01/12 04:34:32;;;;;;;24.17;2.97;;;;;;;8.70;100.00;99364.78;5037068;28;20172;-66
2023/01/12 04:37:00;;;;;;;19.60;2.38;;;;;;;8.74;100.00;99359.78;5019431;28;20057;-66
2023/01/12 04:39:25;;;;;;;20.95;2.40;;;;;;;8.65;100.00;99362.78;5037021;28;20049;-66
2023/01/12 04:41:50;;;;;;;15.55;2.10;;;;;;;8.65;100.00;99357.41;5036854;28;20143;-66
2023/01/12 04:44:16;;;;;;;17.90;2.60;;;;;;;8.63;100.00;99356.81;5036630;28;20095;-66
2023/01/12 04:46:41;;;;;;;16.35;1.58;;;;;;;8.63;100.00;99356.00;5019424;28;20132;-66
2023/01/12 04:49:07;;;;;;;16.30;1.38;;;;;;;8.69;100.00;99353.25;5036902;28;20044;-66
2023/01/12 04:51:32;;;;;;;13.55;1.50;;;;;;;8.60;100.00;99332.31;5036901;28;20021;-66
2023/01/12 04:53:58;;;;;;;21.00;1.83;;;;;;;8.69;100.00;99347.06;5018871;28;20029;-67
2023/01/12 04:56:23;;;;;;;19.95;1.90;;;;;;;8.65;100.00;99335.97;5017499;28;20037;-66
2023/01/12 04:58:54;;;;;;;18.67;2.22;;;;;;;8.51;100.00;99317.53;5017118;28;20036;-67
2023/01/12 05:01:21;;;;;;;15.88;2.05;;;;;;;8.68;100.00;99343.56;5035307;28;20385;-66
2023/01/12 05:03:46;;;;;;;19.65;1.73;;;;;;;8.76;100.00;99342.44;5035257;28;20079;-66
2023/01/12 05:06:12;;;;;;;13.15;2.28;;;;;;;8.77;100.00;99352.13;5017077;28;20491;-66
2023/01/12 05:11:27;;;;;;;22.13;2.78;;;;;;;8.84;100.00;99339.47;5020698;28;20044;-67
2023/01/12 05:13:54;;;;;;;25.58;2.55;;;;;;;8.78;100.00;99350.28;5034804;28;20531;-68
2023/01/12 05:16:20;;;;;;;19.35;1.98;;;;;;;8.72;100.00;99341.25;5036137;28;20467;-67
2023/01/12 05:18:46;;;;;;;18.08;2.10;;;;;;;8.69;100.00;99339.84;5019131;28;20052;-67
2023/01/12 05:21:13;;;;;;;22.17;2.10;;;;;;;8.75;100.00;99330.09;5021829;28;20037;-70
2023/01/12 05:23:38;;;;;;;17.98;1.80;;;;;;;8.80;100.00;99330.22;5021820;28;20047;-71
2023/01/12 05:26:05;;;;;;;16.13;1.60;;;;;;;8.81;100.00;99334.56;5039794;28;20075;-69
2023/01/12 05:28:31;;;;;;;16.55;1.85;;;;;;;8.88;100.00;99337.97;5040564;28;20021;-69
2023/01/12 05:31:06;;;;;;;17.05;1.77;;;;;;;8.83;100.00;99321.72;5040006;28;20037;-69
2023/01/12 05:33:32;;;;;;;15.48;2.45;;;;;;;8.82;100.00;99325.47;5039211;28;20025;-68
2023/01/12 05:35:58;;;;;;;14.27;2.63;;;;;;;8.74;100.00;99327.59;5022174;28;20048;-70
2023/01/12 05:38:23;;;;;;;20.38;2.08;;;;;;;8.64;100.00;99315.56;5041423;28;20021;-69
2023/01/12 05:40:49;;;;;;;16.70;2.05;;;;;;;8.74;100.00;99330.28;5043708;28;20025;-69
2023/01/12 05:46:06;;;;;;;15.15;1.88;;;;;;;8.82;100.00;99330.00;5029167;28;20084;-69
2023/01/12 05:48:32;;;;;;;16.02;2.10;;;;;;;8.75;100.00;99305.13;5027886;28;20030;-69
2023/01/12 05:51:01;;;;;;;15.07;1.85;;;;;;;8.90;100.00;99327.00;5027261;28;20044;-69
2023/01/12 05:53:27;;;;;;;16.83;2.10;;;;;;;8.88;100.00;99324.56;5026603;28;20112;-69
2023/01/12 05:55:53;;;;;;;15.00;1.92;;;;;;;8.88;100.00;99332.63;5026696;28;20445;-69
2023/01/12 05:58:18;;;;;;;14.05;1.83;;;;;;;8.90;100.00;99327.81;5025760;28;20025;-69
2023/01/12 06:00:44;;;;;;;21.25;2.30;;;;;;;8.91;100.00;99324.13;5022565;28;20041;-70
2023/01/12 06:03:09;;;;;;;15.90;1.90;;;;;;;8.75;100.00;99314.00;5040055;28;20083;-70
2023/01/12 06:05:34;;;;;;;17.17;2.08;;;;;;;8.73;100.00;99299.97;5020458;28;20101;-68
2023/01/12 06:08:01;;;;;;;17.52;2.35;;;;;;;8.77;100.00;99322.63;5020547;28;20022;-69
2023/01/12 06:10:27;;;;;;;16.00;1.92;;;;;;;8.75;100.00;99318.53;5038207;28;20273;-69
2023/01/12 06:15:36;;;;;;;15.45;1.95;;;;;;;8.79;100.00;99315.19;5020692;28;20067;-69
2023/01/12 06:18:02;;;;;;;18.75;1.70;;;;;;;8.79;100.00;99311.69;5037256;28;20543;-69
2023/01/12 06:20:28;;;;;;;21.02;2.13;;;;;;;8.78;100.00;99316.22;5020292;28;20057;-69
2023/01/12 06:22:54;;;;;;;24.20;2.17;;;;;;;8.77;100.00;99308.41;5021837;28;20044;-69
2023/01/12 06:25:20;;;;;;;14.43;2.00;;;;;;;8.70;100.00;99287.00;5005399;28;20040;-68
2023/01/12 06:27:45;;;;;;;23.33;2.47;;;;;;;8.86;100.00;99310.56;5020757;28;20018;-69
2023/01/12 06:30:11;;;;;;;18.90;2.30;;;;;;;8.83;100.00;99310.19;5038020;28;20056;-69
2023/01/12 06:32:37;;;;;;;20.42;2.17;;;;;;;8.79;100.00;99303.63;5005037;28;20047;-69
2023/01/12 06:35:04;;;;;;;16.40;2.28;;;;;;;8.66;100.00;99285.84;5021293;28;20120;-69
2023/01/12 06:37:29;;;;;;;18.35;2.33;;;;;;;8.74;100.00;99312.38;5039192;28;20032;-68
2023/01/12 06:39:54;;;;;;;21.42;2.53;;;;;;;8.73;100.00;99316.06;5021393;28;20029;-69
2023/01/12 06:42:29;;;;;;;17.63;2.42;;;;;;;8.74;100.00;99316.88;5021412;28;20372;-68
2023/01/12 06:44:59;;;;;;;18.98;2.40;;;;;;;8.75;100.00;99323.91;5021133;28;20491;-69
2023/01/12 06:47:27;;;;;;;23.00;2.33;;;;;;;8.74;100.00;99317.72;5034895;28;20079;-69
2023/01/12 06:49:52;;;;;;;18.63;2.40;;;;;;;8.73;100.00;99324.13;5021148;28;20088;-68
2023/01/12 06:52:23;;;;;;;17.80;2.05;;;;;;;8.72;100.00;99325.16;5021804;28;20034;-69
2023/01/12 06:54:49;;;;;;;17.25;2.25;;;;;;;8.64;100.00;99323.59;5039016;28;20045;-68
2023/01/12 06:57:15;;;;;;;23.50;2.13;;;;;;;8.70;100.00;99319.19;5021229;28;20052;-68
2023/01/12 06:59:41;;;;;;;13.43;1.40;;;;;;;8.67;100.00;99323.13;5021545;28;20083;-68
2023/01/12 07:02:10;;;;;;;18.17;1.80;;;;;;;8.66;100.00;99318.00;5005346;28;20120;-68
2023/01/12 07:04:36;;;;;;;18.15;1.98;;;;;;;8.59;100.00;99309.22;5021654;28;20029;-68
2023/01/12 07:07:01;;;;;;;12.38;2.03;;;;;;;8.67;100.00;99307.03;5005516;28;20199;-67
2023/01/12 07:09:27;;;;;;;20.30;1.88;;;;;;;8.69;100.00;99306.84;5037917;28;20560;-68
2023/01/12 07:11:52;;;;;;;15.73;2.00;;;;;;;8.66;100.00;99315.31;5019789;28;20033;-68
2023/01/12 07:14:18;;;;;;;11.23;1.67;;;;;;;8.55;100.00;99289.28;5020553;28;20030;-67
2023/01/12 07:16:43;;;;;;;11.70;1.50;;;;;;;8.59;100.00;99293.94;5034920;28;20032;-68
2023/01/12 07:19:08;;;;;;;10.32;2.03;;;;;;;8.70;100.00;99320.00;5017841;28;20053;-67
2023/01/12 07:21:34;;;;;;;10.02;1.50;;;;;;;8.52;100.00;99305.78;5016139;28;20028;-68
2023/01/12 07:23:59;;;;;;;13.13;2.00;;;;;;;8.68;100.00;99337.38;5000997;28;20182;-68
2023/01/12 07:26:25;;;;;;;11.20;1.60;;;;;;;8.57;100.00;99316.66;5017772;28;20484;-68
2023/01/12 07:28:50;;;;;;;17.55;2.38;;;;;;;8.62;100.00;99335.59;5037831;28;20128;-68
2023/01/12 07:31:17;;;;;;;12.40;1.83;;;;;;;8.69;100.00;99339.84;5019065;28;20033;-68
2023/01/12 07:33:43;;;;;;;18.05;2.35;;;;;;;8.67;100.00;99336.53;5039305;28;20203;-69
2023/01/12 07:36:09;;;;;;;17.90;2.45;;;;;;;8.73;100.00;99344.75;5020614;28;20343;-68
2023/01/12 07:38:34;;;;;;;16.70;2.38;;;;;;;8.62;100.00;99335.59;5038177;28;20041;-68
2023/01/12 07:41:01;;;;;;;14.27;2.20;;;;;;;8.69;100.00;99345.19;5036334;28;20025;-68
2023/01/12 07:43:26;;;;;;;14.73;2.85;;;;;;;8.54;100.00;99334.00;5020611;28;20029;-68
2023/01/12 07:45:55;;;;;;;17.88;2.30;;;;;;;8.62;100.00;99357.03;5021502;28;20503;-68
2023/01/12 07:48:21;;;;;;;18.08;2.70;;;;;;;8.57;100.00;99349.66;5039948;28;20017;-68
2023/01/12 07:50:46;;;;;;;18.13;2.72;;;;;;;8.63;100.00;99348.75;5040289;28;20021;-67
2023/01/12 07:53:12;;;;;;;11.05;2.38;;;;;;;8.49;100.00;99330.38;5022032;28;20472;-67
2023/01/12 07:55:38;;;;;;;20.77;2.95;;;;;;;8.68;100.00;99354.28;5039250;28;20052;-67
2023/01/12 07:58:07;;;;;;;11.32;2.33;;;;;;;8.53;100.00;99332.38;4989491;28;20033;-68
2023/01/12 08:00:33;;;;;;;13.02;2.55;;;;;;;8.72;100.00;99346.63;5039689;28;20044;-68
2023/01/12 08:03:07;;;;;;;19.55;2.67;;;;;;;8.76;100.00;99347.00;5021536;28;20030;-68
2023/01/12 08:05:33;;;;;;;16.80;3.22;;;;;;;8.58;100.00;99323.69;5037894;28;20029;-67
2023/01/12 08:07:59;;;;;;;13.52;2.60;;;;;;;8.75;100.00;99348.84;5037975;28;20018;-67
2023/01/12 08:10:24;;;;;;;19.67;3.40;;;;;;;8.74;100.00;99349.91;5020140;28;20083;-68
2023/01/12 08:12:50;;;;;;;15.07;2.70;;;;;;;8.77;100.00;99349.44;5037545;28;20075;-68
2023/01/12 08:15:16;;;;;;;15.93;2.67;;;;;;;8.76;100.00;99345.13;5038055;28;20026;-68
2023/01/12 08:17:53;;;;;;;14.10;2.60;;;;;;;8.78;100.00;99344.91;5037132;28;20365;-68
2023/01/12 08:20:26;;;;;;;19.13;2.95;;;;;;;8.66;100.00;99332.22;5018863;28;20049;-67
2023/01/12 08:22:55;;;;;;;14.05;2.67;;;;;;;8.67;100.00;99347.28;5036948;28;20052;-68
2023/01/12 08:25:29;;;;;;;15.25;2.65;;;;;;;8.56;100.00;99334.59;5004013;28;20036;-68
2023/01/12 08:27:59;;;;;;;16.58;3.17;;;;;;;8.68;100.00;99353.47;5019916;28;20029;-68
2023/01/12 08:30:26;;;;;;;19.10;2.55;;;;;;;8.67;100.00;99359.84;5037648;28;20025;-68
2023/01/12 08:32:54;;;;;;;17.95;2.92;;;;;;;8.69;100.00;99360.47;5044431;28;20029;-68
2023/01/12 08:35:22;;;;;;;18.73;2.50;;;;;;;8.70;100.00;99354.06;5034407;28;20350;-68
2023/01/12 08:37:48;;;;;;;13.10;2.20;;;;;;;8.70;100.00;99356.75;5051465;28;20013;-68
2023/01/12 08:40:14;;;;;;;15.68;2.20;;;;;;;8.74;100.00;99360.63;5034706;28;20133;-68
2023/01/12 08:42:39;;;;;;;12.45;2.28;;;;;;;8.69;100.00;99361.28;5033899;28;20044;-68
2023/01/12 08:45:06;;;;;;;15.50;2.63;;;;;;;8.73;100.00;99358.16;5041608;28;20029;-68
2023/01/12 08:47:33;;;;;;;15.80;2.20;;;;;;;8.77;100.00;99362.84;5038532;28;20495;-68
2023/01/12 08:49:59;;;;;;;20.67;2.80;;;;;;;8.74;100.00;99352.59;5038008;28;20033;-68
2023/01/12 08:52:28;;;;;;;20.10;3.00;;;;;;;8.71;100.00;99350.34;5019878;28;20491;-68
2023/01/12 08:54:53;;;;;;;12.30;2.22;;;;;;;8.81;100.00;99356.03;5019223;28;20075;-68
2023/01/12 08:57:19;;;;;;;15.02;2.00;;;;;;;8.72;100.00;99349.31;5019611;28;20025;-68
2023/01/12 08:59:44;;;;;;;18.33;2.10;;;;;;;8.74;100.00;99352.59;5003127;28;20113;-68
2023/01/12 09:02:11;;;;;;;11.60;1.85;;;;;;;8.64;100.00;99341.53;5019766;28;20025;-68
2023/01/12 09:04:40;;;;;;;16.60;2.10;;;;;;;8.78;100.00;99355.66;5037425;28;20037;-68
2023/01/12 09:07:08;;;;;;;22.85;2.47;;;;;;;8.74;100.00;99357.97;5020171;28;20037;-68
2023/01/12 09:09:33;;;;;;;16.27;1.92;;;;;;;8.77;100.00;99348.63;5020252;28;20089;-68
2023/01/12 09:11:59;;;;;;;15.18;2.10;;;;;;;8.88;100.00;99356.75;5020228;28;20053;-68
2023/01/12 09:14:24;;;;;;;17.20;2.25;;;;;;;8.80;100.00;99335.59;5003643;28;20033;-68
2023/01/12 09:16:50;;;;;;;13.55;1.85;;;;;;;8.91;100.00;99355.50;5019291;28;20036;-68
2023/01/12 09:19:16;;;;;;;17.00;2.05;;;;;;;8.89;100.00;99362.94;5020009;28;20057;-68
2023/01/12 09:21:42;;;;;;;21.17;2.35;;;;;;;8.87;100.00;99360.50;5020616;28;20030;-68
2023/01/12 09:24:09;;;;;;;15.25;1.88;;;;;;;8.74;100.00;99360.63;5020613;28;20026;-68
2023/01/12 09:26:37;;;;;;;17.52;2.22;;;;;;;8.75;100.00;99348.84;5017754;28;20013;-69
2023/01/12 09:29:03;;;;;;;10.48;1.60;;;;;;;8.78;100.00;99366.38;5034959;28;20375;-68
2023/01/12 09:31:30;;;;;;;13.52;2.20;;;;;;;8.67;100.00;99358.00;5037075;28;20067;-68
2023/01/12 09:33:56;;;;;;;17.48;1.95;;;;;;;8.74;100.00;99371.38;5037725;28;20033;-67
2023/01/12 09:36:26;;;;;;;14.80;2.13;;;;;;;8.82;100.00;99372.94;5037903;28;20099;-68
2023/01/12 09:38:52;;;;;;;15.57;1.70;;;;;;;8.68;100.00;99353.47;5037947;28;20044;-68
2023/01/12 09:47:35;;;;;;;18.52;2.72;;;;;;;8.84;100.00;99377.03;5037875;28;20075;-68
2023/01/12 09:50:04;;;;;;;21.45;2.30;;;;;;;8.83;100.00;99375.38;5014974;28;20034;-68
2023/01/12 09:52:34;;;;;;;25.80;2.38;;;;;;;8.88;100.00;99364.81;5038064;28;20033;-67
2023/01/12 09:55:00;;;;;;;21.38;2.25;;;;;;;8.90;100.00;99376.13;5037728;28;20116;-68
2023/01/12 09:57:41;;;;;;;19.35;2.10;;;;;;;8.94;100.00;99371.97;5038031;28;20052;-68
2023/01/12 10:00:17;;;;;;;18.45;1.80;;;;;;;8.85;100.00;99378.66;5020882;28;20036;-68
2023/01/12 10:02:50;;;;;;;20.92;2.35;;;;;;;9.01;100.00;99376.44;5032563;28;20056;-68
2023/01/12 10:05:41;;;;;;;15.40;2.20;;;;;;;8.89;100.00;99353.03;5038468;28;20037;-68
2023/01/12 10:08:18;;;;;;;24.10;3.28;;;;;;;9.09;100.00;99376.13;5040826;28;20071;-68
2023/01/12 10:11:01;;;;;;;21.35;2.33;;;;;;;9.13;100.00;99383.50;5022293;28;20045;-68
2023/01/12 10:13:42;;;;;;;19.75;2.45;;;;;;;9.05;100.00;99373.06;5040098;28;20100;-68
2023/01/12 10:16:19;;;;;;;21.95;2.55;;;;;;;9.01;100.00;99377.25;5022460;28;20032;-68
2023/01/12 10:18:51;;;;;;;20.85;3.22;;;;;;;8.91;100.00;99363.53;5023435;28;20043;-68
2023/01/12 10:21:16;;;;;;;29.15;3.42;;;;;;;9.00;100.00;99358.69;5023574;28;20036;-68
2023/01/12 10:23:43;;;;;;;29.25;3.13;;;;;;;9.08;100.00;99372.63;5040401;28;20049;-68
2023/01/12 10:26:21;;;;;;;30.85;3.58;;;;;;;9.02;100.00;99356.59;5022749;28;20033;-68
2023/01/12 10:28:51;;;;;;;23.48;3.40;;;;;;;9.16;100.00;99361.56;5040313;28;20025;-68
2023/01/12 10:31:22;;;;;;;33.20;3.38;;;;;;;9.25;100.00;99362.09;5040453;28;20028;-68
2023/01/12 10:34:06;;;;;;;26.42;2.63;;;;;;;9.31;100.00;99363.06;5039984;28;20112;-68
2023/01/12 10:36:34;;;;;;;32.80;3.65;;;;;;;9.26;100.00;99361.03;5039959;28;20025;-68
2023/01/12 10:39:03;;;;;;;26.02;3.53;;;;;;;9.13;100.00;99358.53;5040123;28;20037;-68
2023/01/12 10:41:31;;;;;;;22.17;3.33;;;;;;;9.02;100.00;99335.97;5040138;28;20025;-68
2023/01/12 10:43:59;;;;;;;22.42;3.28;;;;;;;9.18;100.00;99353.31;5019807;28;20180;-67
2023/01/12 10:46:27;;;;;;;27.52;3.45;;;;;;;9.18;100.00;99345.25;5039518;28;20103;-68
2023/01/12 10:48:54;;;;;;;35.08;3.40;;;;;;;9.26;100.00;99342.25;5039804;28;20108;-68
2023/01/12 10:51:26;;;;;;;22.08;3.13;;;;;;;9.18;100.00;99342.59;5040125;28;20033;-68
2023/01/12 10:53:54;;;;;;;32.85;3.92;;;;;;;9.26;100.00;99338.75;5040002;28;20381;-68
2023/01/12 10:56:26;;;;;;;29.35;3.83;;;;;;;9.35;100.00;99337.41;5021384;28;20040;-69
2023/01/12 10:59:12;;;;;;;33.83;3.65;;;;;;;9.23;100.00;99337.34;5040242;28;20059;-67
2023/01/12 11:02:04;;;;;;;30.35;3.45;;;;;;;9.19;100.00;99330.78;5040166;28;20029;-68
2023/01/12 11:04:35;;;;;;;32.40;3.80;;;;;;;9.29;100.00;99323.03;5019631;28;20029;-68
2023/01/12 11:07:21;;;;;;;35.35;3.88;;;;;;;9.24;100.00;99316.69;5040062;28;20032;-67
2023/01/12 11:09:47;;;;;;;30.00;4.13;;;;;;;9.26;100.00;99314.59;5021924;28;20033;-68
2023/01/12 11:12:33;;;;;;;32.67;3.95;;;;;;;9.25;100.00;99313.78;5022527;28;20033;-67
2023/01/12 11:15:11;;;;;;;31.60;4.20;;;;;;;9.28;100.00;99309.84;5039883;28;20030;-68
2023/01/12 11:18:02;;;;;;;34.15;4.47;;;;;;;9.25;100.00;99305.72;5039322;28;20108;-68
2023/01/12 11:20:30;;;;;;;36.90;4.18;;;;;;;9.32;100.00;99309.16;5021560;28;20129;-68
2023/01/12 11:23:01;;;;;;;33.60;4.65;;;;;;;9.31;100.00;99299.47;5021529;28;20087;-68
2023/01/12 11:25:40;;;;;;;45.67;5.47;;;;;;;9.40;100.00;99308.84;5039854;28;20028;-68
2023/01/12 11:28:15;;;;;;;35.58;4.47;;;;;;;9.45;100.00;99305.47;5039189;28;20022;-68
2023/01/12 11:30:50;;;;;;;36.47;4.88;;;;;;;9.49;100.00;99297.75;5039084;28;20021;-68
2023/01/12 11:33:21;;;;;;;37.67;4.82;;;;;;;9.04;100.00;99233.75;5039073;28;20021;-68
2023/01/12 11:35:57;;;;;;;41.60;4.95;;;;;;;9.43;100.00;99309.41;5038659;28;20033;-68
2023/01/12 11:39:03;;;;;;;40.58;4.53;;;;;;;9.47;100.00;99297.16;5038607;28;20392;-68
2023/01/12 11:45:11;;;;;;;32.42;5.38;;;;;;;9.58;100.00;99291.84;5037254;28;20032;-68
2023/01/12 11:47:44;;;;;;;48.67;5.25;;;;;;;9.46;100.00;99299.03;5019732;28;20025;-68
2023/01/12 11:50:16;;;;;;;44.00;5.35;;;;;;;9.45;100.00;99294.72;5017674;28;20108;-68
2023/01/12 11:52:42;;;;;;;53.22;5.78;;;;;;;9.38;100.00;99278.72;5019819;28;20025;-68
2023/01/12 11:55:16;;;;;;;40.72;4.82;;;;;;;9.47;100.00;99283.75;5035314;28;20036;-66
2023/01/12 11:57:57;;;;;;;41.05;5.22;;;;;;;9.41;100.00;99280.13;5037026;28;20132;-68
2023/01/12 12:00:39;;;;;;;37.63;4.95;;;;;;;9.39;100.00;99279.53;5038030;28;20032;-68
2023/01/12 12:03:29;;;;;;;45.83;5.10;;;;;;;9.35;100.00;99268.44;5019442;28;20149;-68
2023/01/12 12:06:16;;;;;;;45.55;5.53;;;;;;;9.41;100.00;99272.88;5037404;28;20039;-68
2023/01/12 12:09:00;;;;;;;51.63;6.07;;;;;;;9.41;100.00;99274.75;5019649;28;20014;-68
2023/01/12 12:11:45;;;;;;;45.42;5.18;;;;;;;9.41;100.00;99274.75;5019351;28;20096;-68